Terminal Aerodrome Forecast
Issued by NWS

Home | Current Version | Previous Version | Text Only | Print | Product List | Glossary On
Versions: 1 2 3 4 5 6 7 8 9 10 11 12 13
000
FTUS45 KGGW 071731
TAFGDV
TAF
KGDV 071731Z 0718/0818 29019G27KT P6SM SCT050 BKN100
     FM080100 29010KT P6SM BKN050
     FM080800 28007KT P6SM BKN030=

USA.gov is the U.S. government's official web portal to all federal, state and local government web resources and services.